M I D A S
Marine Information and Data Acquisition System
Tripno 1538 of the Zeeleeuw from 2008-08-18 07:18:26 to 2008-08-18 15:57:06
Back to CruiseResearch ActivitiesStationsMapUnderway DataData graphs

EquipmentUnitsComment
TimeDGPSUTC
LatitudeDGPSDM.mWGS84
LongitudeDGPSDM.mWGS84
TemperatureSBE03/SBE38deg celciusITS90
ConductivitySBE21S/mITS90
SalinitySBE21 Practical Salinity Units
ChlorophylAChelsea fluorimeterg/lCalibrated in Aceton
Missing or incorrect values are displayed as -999
Sea surface data collected by the RV Zeeleeuw from 2008-08-18 07:16:45 to 2008-08-18 15:57:41
Time Latitude Longitude Temperature Conductivity Salinity ChlorophylA
2008-08-18 07:17:50 51°13.641 2°55.993 20.2201 0.185881 1.054926 -1.139864
2008-08-18 07:18:51 51°13.664 2°55.896 20.2179 0.185881 1.055059 -1.139864
2008-08-18 07:19:50 51°13.707 2°55.796 20.2166 0.185881 1.055154 -1.139864
2008-08-18 07:20:51 51°13.768 2°55.701 20.2369 0.185778 1.054692 -1.139864
2008-08-18 07:21:51 51°13.839 2°55.634 20.2589 0.185778 1.054768 -1.139864
2008-08-18 07:22:50 51°13.908 2°55.646 20.282 0.185778 1.054938 -1.139864
2008-08-18 07:23:49 51°13.93 2°55.642 20.2601 0.185778 1.055033 -1.139864
2008-08-18 07:24:47 51°13.991 2°55.54 20.2811 0.185778 1.055147 -1.139864
2008-08-18 07:25:47 51°14.103 2°55.427 20.2807 0.185675 1.05459 -1.139864
2008-08-18 07:26:47 51°14.219 2°55.308 20.3126 0.185675 1.054704 -1.139864
2008-08-18 07:27:47 51°14.317 2°55.146 20.3011 0.185675 1.054799 -1.139864
2008-08-18 07:28:47 51°14.386 2°54.955 20.3646 0.185675 1.054913 -1.139864
2008-08-18 07:29:47 51°14.376 2°54.686 20.3361 0.185675 1.054989 -1.139864
2008-08-18 07:30:47 51°14.316 2°54.405 20.3474 0.185675 1.055084 -1.139864
2008-08-18 07:31:47 51°14.246 2°54.121 20.3552 0.185572 1.054583 -1.139864
2008-08-18 07:32:47 51°14.168 2°53.84 20.3703 0.185572 1.054659 -1.139864
2008-08-18 07:33:47 51°14.084 2°53.559 20.3691 0.185572 1.054735 -1.139864
2008-08-18 07:34:47 51°14.003 2°53.274 20.3969 0.185572 1.054849 -1.139864
2008-08-18 07:35:47 51°13.92 2°52.988 20.3882 0.185572 1.054944 -1.139864
2008-08-18 07:36:47 51°13.835 2°52.702 20.4149 0.185572 1.055039 -1.139864
2008-08-18 07:37:47 51°13.749 2°52.416 20.4236 0.185572 1.055134 -1.139864
2008-08-18 07:38:47 51°13.663 2°52.13 20.4204 0.18547 1.054614 -1.139864
2008-08-18 07:39:47 51°13.583 2°51.852 20.405 0.18547 1.05469 -1.139864
2008-08-18 07:40:47 51°13.522 2°51.657 20.4465 0.18547 1.054805 -1.139864
2008-08-18 07:41:47 51°13.482 2°51.548 20.4596 0.18547 1.0549 -1.139864
2008-08-18 07:42:47 51°13.455 2°51.473 20.4593 0.18547 1.054976 -1.139864
2008-08-18 07:43:47 51°13.447 2°51.433 20.4844 0.18547 1.055071 -1.139864
2008-08-18 07:44:47 51°13.446 2°51.418 20.484 0.185367 1.05457 -1.139864
2008-08-18 07:45:47 51°13.442 2°51.401 20.4971 0.185367 1.054665 -1.139864
2008-08-18 07:46:47 51°13.437 2°51.382 20.5047 0.185367 1.054741 -1.139864
2008-08-18 07:47:47 51°13.433 2°51.363 20.5142 0.185367 1.054855 -1.139864
2008-08-18 07:48:47 51°13.427 2°51.342 20.5219 0.185367 1.054969 -1.139864
2008-08-18 07:49:47 51°13.421 2°51.321 20.5363 0.185367 1.055084 -1.139864
2008-08-18 07:50:47 51°13.416 2°51.3 20.5491 0.185264 1.054601 -1.139864
2008-08-18 07:51:47 51°13.413 2°51.276 20.5694 0.185264 1.054716 -1.139864
2008-08-18 07:52:47 51°13.407 2°51.197 18.4869 1.648519 10.890817 3.805151
2008-08-18 07:53:47 51°13.345 2°51.05 18.3913 4.512852 33.821937 2.76043
2008-08-18 07:54:47 51°13.247 2°50.815 18.3742 4.527597 34.016739 2.655957
2008-08-18 07:55:47 51°13.13 2°50.527 18.3739 4.533723 34.085965 2.864902
2008-08-18 07:56:47 51°13.009 2°50.234 18.3586 4.535177 34.104761 3.004198
2008-08-18 07:57:47 51°12.887 2°49.939 18.3536 4.524586 34.023436 2.864902
2008-08-18 07:58:46 51°12.77 2°49.649 18.3456 4.520953 34.000031 2.76043
2008-08-18 07:59:47 51°12.655 2°49.344 18.3409 4.535489 34.126413 2.690782
2008-08-18 08:00:47 51°12.551 2°49.034 18.3389 4.534658 34.123353 2.690782
2008-08-18 08:01:47 51°12.449 2°48.723 18.3397 4.531232 34.09776 2.725606
2008-08-18 08:02:47 51°12.354 2°48.406 18.3434 4.537981 34.15267 2.690782
2008-08-18 08:03:47 51°12.269 2°48.08 18.3492 4.549921 34.248726 2.655957
2008-08-18 08:04:47 51°12.181 2°47.758 18.3535 4.552309 34.264907 2.481837
2008-08-18 08:05:47 51°12.092 2°47.435 18.357 4.554594 34.28219 2.307717
2008-08-18 08:06:47 51°12.002 2°47.114 18.3579 4.550025 34.241037 2.203245
2008-08-18 08:07:47 51°11.917 2°46.792 18.3553 4.559682 34.322452 2.098773
2008-08-18 08:08:47 51°11.868 2°46.449 18.353 4.55802 34.309103 2.029124
2008-08-18 08:09:47 51°11.819 2°46.106 18.3532 4.560201 34.329471 1.959476
2008-08-18 08:10:47 51°11.769 2°45.761 18.3459 4.564458 34.366039 1.855004
2008-08-18 08:11:47 51°11.732 2°45.413 18.3349 4.565185 34.380108 1.959476
2008-08-18 08:12:47 51°11.707 2°45.066 18.3362 4.563835 34.372688 2.168421
2008-08-18 08:13:47 51°11.683 2°44.722 18.3208 4.55854 34.331974 2.586309
2008-08-18 08:14:47 51°11.662 2°44.382 18.3047 4.556982 34.332052 2.899726
2008-08-18 08:15:47 51°11.64 2°44.044 18.2908 4.555217 34.328394 3.10867
2008-08-18 08:16:47 51°11.608 2°43.71 18.2812 4.554802 34.336134 3.247966
2008-08-18 08:17:47 51°11.568 2°43.377 18.277 4.555114 34.346709 3.352439
2008-08-18 08:18:47 51°11.521 2°43.046 18.2791 4.556152 34.358792 3.422087
2008-08-18 08:19:47 51°11.469 2°42.715 18.2779 4.557087 34.364037 3.422087
2008-08-18 08:20:47 51°11.381 2°42.458 18.2714 4.557191 34.36889 3.387263
2008-08-18 08:21:47 51°11.283 2°42.324 18.2668 4.556879 34.370897 3.28279
2008-08-18 08:22:47 51°11.202 2°42.212 18.2669 4.556256 34.366958 3.004198
2008-08-18 08:23:47 51°11.128 2°42.129 18.2718 4.55501 34.355767 2.795254
2008-08-18 08:24:47 51°11.098 2°42.09 18.2747 4.554699 34.349161 2.586309
2008-08-18 08:25:50 51°11.109 2°42.063 18.2798 4.555114 34.348696 2.551485
2008-08-18 08:26:47 51°11.119 2°42.038 18.2834 4.555633 34.34977 2.447013
2008-08-18 08:27:47 51°11.131 2°42.009 18.2816 4.555529 34.347568 2.238069
2008-08-18 08:28:47 51°11.138 2°41.981 18.2812 4.555529 34.347568 2.133597
2008-08-18 08:29:47 51°11.068 2°42.02 18.2782 4.555633 34.345797 2.238069
2008-08-18 08:30:47 51°10.926 2°42.092 18.298 4.548676 34.292337 2.481837
2008-08-18 08:31:47 51°10.78 2°42.188 18.3332 4.55636 34.333406 2.586309
2008-08-18 08:32:47 51°10.638 2°42.299 18.3376 4.559993 34.340934 2.307717
2008-08-18 08:33:47 51°10.497 2°42.412 18.314 4.561136 34.353877 2.133597
2008-08-18 08:34:47 51°10.383 2°42.504 18.3008 4.557502 34.341725 2.203245
2008-08-18 08:35:47 51°10.318 2°42.54 18.295 4.556256 34.339145 2.272893
2008-08-18 08:36:47 51°10.281 2°42.59 18.2861 4.554283 34.327119 2.412189
2008-08-18 08:37:47 51°10.238 2°42.667 18.271 4.551584 34.312921 2.655957
2008-08-18 08:38:47 51°10.189 2°42.756 18.2386 4.547015 34.290869 3.178318
2008-08-18 08:39:47 51°10.151 2°42.807 18.2163 4.540993 34.265777 3.735503
2008-08-18 08:40:47 51°10.138 2°42.804 18.2045 4.53736 34.252256 3.979271
2008-08-18 08:41:47 51°10.133 2°42.796 18.1957 4.535698 34.246809 4.04892
2008-08-18 08:42:47 51°10.131 2°42.786 18.1916 4.534972 34.244633 4.083744
2008-08-18 08:43:47 51°10.129 2°42.774 18.1875 4.534245 34.241132 4.04892
2008-08-18 08:44:47 51°10.128 2°42.76 18.1845 4.533518 34.239617 4.014096
2008-08-18 08:45:47 51°10.13 2°42.761 18.1848 4.533103 34.237427 3.909623
2008-08-18 08:46:47 51°10.192 2°42.751 18.1794 4.533103 34.237427 4.083744
2008-08-18 08:47:47 51°10.202 2°42.549 18.1846 4.531234 34.226249 4.466808
2008-08-18 08:48:47 51°10.203 2°42.237 18.2157 4.530819 34.214799 4.431984
2008-08-18 08:49:47 51°10.211 2°41.907 18.2557 4.535802 34.226528 3.665855
2008-08-18 08:50:47 51°10.229 2°41.571 18.2761 4.546392 34.286929 2.969374
2008-08-18 08:51:47 51°10.244 2°41.232 18.2831 4.551064 34.312506 2.621133
2008-08-18 08:52:47 51°10.251 2°40.892 18.281 4.553141 34.326736 2.516661
2008-08-18 08:53:47 51°10.259 2°40.55 18.303 4.55366 34.329797 2.447013
2008-08-18 08:54:47 51°10.269 2°40.208 18.335 4.556982 34.334036 2.342541
2008-08-18 08:55:47 51°10.279 2°39.864 18.3312 4.557813 34.321878 2.516661
2008-08-18 08:56:47 51°10.291 2°39.52 18.3091 4.556152 34.315789 2.621133
2008-08-18 08:57:47 51°10.301 2°39.176 18.2832 4.554075 34.316769 2.586309
2008-08-18 08:58:47 51°10.311 2°38.831 18.2572 4.550961 34.313613 2.655957
2008-08-18 08:59:47 51°10.32 2°38.485 18.2549 4.548884 34.310628 2.690782
2008-08-18 09:00:47 51°10.329 2°38.137 18.2657 4.549819 34.3172 2.795254
2008-08-18 09:01:47 51°10.346 2°37.786 18.2427 4.553661 34.348337 2.864902
2008-08-18 09:02:47 51°10.362 2°37.44 18.2136 4.553349 34.368909 2.93455
2008-08-18 09:03:47 51°10.383 2°37.101 18.2229 4.551065 34.362861 3.004198
2008-08-18 09:04:47 51°10.466 2°36.807 18.2099 4.550754 34.356246 3.004198
2008-08-18 09:05:47 51°10.621 2°36.645 18.1857 4.549197 34.358998 2.725606
2008-08-18 09:06:47 51°10.8 2°36.661 18.1588 4.547951 34.366385 2.481837
2008-08-18 09:07:47 51°10.98 2°36.707 18.1342 4.546082 34.371166 2.272893
2008-08-18 09:08:47 51°11.16 2°36.745 18.0849 4.543383 34.373575 2.203245
2008-08-18 09:09:47 51°11.342 2°36.777 18.06 4.539334 34.377872 2.168421
2008-08-18 09:10:47 51°11.525 2°36.799 18.0924 4.539023 34.382563 2.029124
2008-08-18 09:11:47 51°11.708 2°36.831 18.1135 4.542345 34.384085 1.924652
2008-08-18 09:12:47 51°11.892 2°36.86 18.1172 4.544318 34.388154 1.855004
2008-08-18 09:13:47 51°12.076 2°36.871 18.1218 4.544733 34.38901 1.750532
2008-08-18 09:14:47 51°12.259 2°36.89 18.123 4.545044 34.390319 1.750532
2008-08-18 09:15:47 51°12.442 2°36.91 18.1217 4.545148 34.390533 1.785356
2008-08-18 09:16:47 51°12.626 2°36.936 18.1168 4.545044 34.390319 1.924652
2008-08-18 09:17:47 51°12.808 2°36.976 18.1107 4.544525 34.389914 2.029124
2008-08-18 09:18:47 51°12.99 2°37.008 18.1059 4.54411 34.39039 2.238069
2008-08-18 09:19:47 51°13.175 2°37.03 18.0988 4.543695 34.390866 2.307717
2008-08-18 09:20:47 51°13.359 2°37.057 18.084 4.542968 34.3927 2.238069
2008-08-18 09:21:47 51°13.542 2°36.973 18.0865 4.542138 34.396988 2.272893
2008-08-18 09:22:47 51°13.73 2°36.873 18.1128 4.543799 34.402411 2.377365
2008-08-18 09:23:47 51°13.921 2°36.833 18.0999 4.548575 34.424911 2.377365
2008-08-18 09:24:47 51°14.112 2°36.797 18.0647 4.547537 34.436786 2.133597
2008-08-18 09:25:47 51°14.3 2°36.766 18.0447 4.54816 34.468129 1.924652
2008-08-18 09:26:47 51°14.487 2°36.743 18.0372 4.548161 34.482179 1.82018
2008-08-18 09:27:47 51°14.676 2°36.727 18.0336 4.548472 34.489511 1.750532
2008-08-18 09:28:47 51°14.867 2°36.714 18.0324 4.548576 34.491732 1.785356
2008-08-18 09:29:47 51°15.058 2°36.711 18.0323 4.548472 34.492859 1.785356
2008-08-18 09:30:47 51°15.248 2°36.711 18.0313 4.548368 34.491977 1.750532
2008-08-18 09:31:47 51°15.437 2°36.733 18.024 4.548265 34.493774 1.785356
2008-08-18 09:32:47 51°15.628 2°36.74 18.0241 4.548265 34.496453 1.715708
2008-08-18 09:33:47 51°15.82 2°36.747 18.0263 4.548368 34.498005 1.750532
2008-08-18 09:34:47 51°16.01 2°36.754 18.0354 4.548784 34.499525 1.82018
2008-08-18 09:35:47 51°16.195 2°36.77 18.0476 4.55003 34.499393 1.924652
2008-08-18 09:36:47 51°16.379 2°36.782 18.0681 4.551587 34.501908 2.098773
2008-08-18 09:37:47 51°16.524 2°36.803 18.0852 4.553767 34.50302 2.377365
2008-08-18 09:38:47 51°16.584 2°36.817 18.0858 4.555013 34.502891 2.412189
2008-08-18 09:39:47 51°16.597 2°36.809 18.0852 4.554909 34.502679 2.272893
2008-08-18 09:40:47 51°16.604 2°36.797 18.0851 4.555013 34.502891 2.203245
2008-08-18 09:41:47 51°16.604 2°36.783 18.0826 4.554909 34.503348 2.133597
2008-08-18 09:42:47 51°16.599 2°36.765 18.0822 4.554701 34.502255 1.9943
2008-08-18 09:43:47 51°16.592 2°36.743 18.0817 4.554805 34.502467 1.785356
2008-08-18 09:44:47 51°16.585 2°36.717 18.0822 4.554701 34.502923 1.715708
2008-08-18 09:45:47 51°16.579 2°36.692 18.0812 4.554805 34.502467 1.715708
2008-08-18 09:46:47 51°16.572 2°36.669 18.0815 4.554701 34.502923 1.680884
2008-08-18 09:47:47 51°16.588 2°36.689 18.0799 4.554494 34.502499 1.64606
2008-08-18 09:48:47 51°16.649 2°36.604 18.083 4.554494 34.503168 1.889828
2008-08-18 09:49:47 51°16.753 2°36.397 18.071 4.55439 34.502955 1.924652
2008-08-18 09:50:47 51°16.894 2°36.195 18.0558 4.554079 34.50901 1.82018
2008-08-18 09:51:47 51°17.045 2°35.994 18.0295 4.553975 34.52353 1.64606
2008-08-18 09:52:47 51°17.197 2°35.794 18.0146 4.553768 34.541206 1.64606
2008-08-18 09:53:47 51°17.348 2°35.595 18.004 4.553664 34.554415 1.541588
2008-08-18 09:54:47 51°17.493 2°35.379 17.9976 4.553353 34.559153 1.506764
2008-08-18 09:55:47 51°17.633 2°35.147 17.9948 4.553561 34.564949 1.541588
2008-08-18 09:56:47 51°17.768 2°34.904 17.9939 4.55408 34.570709 1.576412
2008-08-18 09:57:47 51°17.903 2°34.656 17.9976 4.554495 34.573569 1.64606
2008-08-18 09:58:47 51°18.029 2°34.392 18.0063 4.555118 34.575508 1.680884
2008-08-18 09:59:47 51°18.156 2°34.132 18.0029 4.555326 34.573242 1.680884
2008-08-18 10:00:47 51°18.284 2°33.871 18.0015 4.555326 34.57593 1.64606
2008-08-18 10:01:48 51°18.408 2°33.602 17.9994 4.555741 34.580806 1.64606
2008-08-18 10:02:47 51°18.529 2°33.344 17.9997 4.556156 34.583666 1.785356
2008-08-18 10:03:47 51°18.652 2°33.084 18.0013 4.555949 34.582572 1.924652
2008-08-18 10:04:45 51°18.766 2°32.826 18.0076 4.555741 34.580806 1.889828
2008-08-18 10:05:45 51°18.879 2°32.553 18.0219 4.555948 34.572494 1.611236
2008-08-18 10:06:45 51°18.993 2°32.283 18.0372 4.556156 34.564187 1.437116
2008-08-18 10:07:45 51°19.112 2°32.018 18.0486 4.55626 34.552321 1.402292
2008-08-18 10:08:45 51°19.23 2°31.755 18.059 4.556156 34.541381 1.402292
2008-08-18 10:09:45 51°19.347 2°31.492 18.066 4.556052 34.533797 1.506764
2008-08-18 10:10:45 51°19.462 2°31.223 18.0634 4.556363 34.529744 1.506764
2008-08-18 10:11:45 51°19.579 2°30.962 18.0502 4.556675 34.537748 1.611236
2008-08-18 10:12:45 51°19.684 2°30.725 18.0251 4.556779 34.553378 1.64606
2008-08-18 10:13:45 51°19.793 2°30.497 18.0073 4.556571 34.570403 1.82018
2008-08-18 10:14:45 51°19.903 2°30.291 17.9903 4.556676 34.590098 1.924652
2008-08-18 10:15:45 51°19.975 2°30.146 17.9757 4.55678 34.602415 1.855004
2008-08-18 10:16:45 51°20.01 2°30.049 17.971 4.55678 34.609817 1.750532
2008-08-18 10:17:45 51°20.021 2°29.987 17.9701 4.556987 34.614277 1.785356
2008-08-18 10:18:45 51°20.028 2°29.947 17.9673 4.557091 34.618528 1.82018
2008-08-18 10:19:45 51°20.032 2°29.915 17.9664 4.557091 34.619875 1.785356
2008-08-18 10:20:45 51°20.037 2°29.888 17.9707 4.557195 34.620759 1.680884
2008-08-18 10:21:45 51°20.043 2°29.87 17.9766 4.557818 34.620674 1.64606
2008-08-18 10:22:45 51°20.046 2°29.831 17.9743 4.558337 34.621052 1.541588
2008-08-18 10:23:45 51°20.015 2°29.724 17.9689 4.558337 34.623746 1.47194
2008-08-18 10:24:45 51°19.979 2°29.556 17.9656 4.557714 34.626525 1.506764
2008-08-18 10:25:45 51°20.062 2°29.52 17.9507 4.556988 34.618991 1.611236
2008-08-18 10:26:45 51°20.137 2°29.684 17.9446 4.556261 34.627625 1.437116
2008-08-18 10:27:45 51°20.206 2°29.913 17.9451 4.55678 34.634068 1.367467
2008-08-18 10:28:45 51°20.278 2°30.147 17.9431 4.557195 34.637605 1.297819
2008-08-18 10:29:45 51°20.355 2°30.406 17.9488 4.557403 34.639374 1.158523
2008-08-18 10:30:45 51°20.436 2°30.681 17.9579 4.557611 34.635075 1.123699
2008-08-18 10:31:45 51°20.508 2°30.962 17.9705 4.557818 34.628083 1.332643
2008-08-18 10:32:45 51°20.582 2°31.235 17.9782 4.55761 34.616213 1.402292
2008-08-18 10:33:45 51°20.655 2°31.509 17.9874 4.557403 34.609061 1.367467
2008-08-18 10:34:45 51°20.727 2°31.786 17.9886 4.557403 34.603006 1.402292
2008-08-18 10:35:45 51°20.798 2°32.067 17.9947 4.557506 34.599181 1.437116
2008-08-18 10:36:45 51°20.87 2°32.346 17.9979 4.557506 34.596491 1.367467
2008-08-18 10:37:45 51°20.945 2°32.627 17.999 4.557714 34.594896 1.262995
2008-08-18 10:38:46 51°21.021 2°32.913 18.0062 4.55761 34.593341 1.297819
2008-08-18 10:39:45 51°21.097 2°33.185 18.0175 4.557506 34.585737 1.297819
2008-08-18 10:40:46 51°21.173 2°33.472 18.0269 4.557921 34.579863 1.402292
2008-08-18 10:41:45 51°21.249 2°33.753 18.0352 4.558129 34.5729 1.437116
2008-08-18 10:42:46 51°21.328 2°34.041 18.0346 4.558232 34.570426 1.47194
2008-08-18 10:43:45 51°21.404 2°34.325 18.0336 4.558129 34.569544 1.541588
2008-08-18 10:44:46 51°21.483 2°34.616 18.0315 4.558025 34.571346 1.576412
2008-08-18 10:45:45 51°21.559 2°34.896 18.0205 4.558129 34.574242 1.576412
2008-08-18 10:46:45 51°21.636 2°35.183 18.0143 4.558129 34.582972 1.611236
2008-08-18 10:47:45 51°21.712 2°35.471 18.017 4.558233 34.587213 1.64606
2008-08-18 10:48:45 51°21.789 2°35.754 18.0188 4.558233 34.585198 1.541588
2008-08-18 10:49:45 51°21.866 2°36.041 18.0238 4.558129 34.578271 1.506764
2008-08-18 10:50:45 51°21.944 2°36.327 18.0318 4.558233 34.573111 1.506764
2008-08-18 10:51:45 51°22.023 2°36.611 18.0361 4.557921 34.569792 1.437116
2008-08-18 10:52:45 51°22.1 2°36.898 18.0372 4.557402 34.560684 1.402292
2008-08-18 10:53:45 51°22.179 2°37.188 18.0354 4.557194 34.558248 1.367467
2008-08-18 10:54:46 51°22.272 2°37.464 18.0349 4.556571 34.554297 1.367467
2008-08-18 10:55:45 51°22.437 2°37.595 18.0327 4.557298 34.562485 1.297819
2008-08-18 10:56:46 51°22.632 2°37.574 18.0253 4.557506 34.568947 1.297819
2008-08-18 10:57:45 51°22.824 2°37.581 18.0226 4.557713 34.57474 1.297819
2008-08-18 10:58:46 51°23.023 2°37.607 18.0234 4.55844 34.582261 1.297819
2008-08-18 10:59:45 51°23.214 2°37.629 18.0242 4.558544 34.581801 1.228171
2008-08-18 11:00:46 51°23.41 2°37.653 18.0218 4.559271 34.589322 1.088875
2008-08-18 11:01:45 51°23.555 2°37.81 18.0319 4.560517 34.59454 0.949579
2008-08-18 11:02:46 51°23.61 2°38.115 18.0288 4.562178 34.607989 0.810283
2008-08-18 11:03:46 51°23.666 2°38.424 18.0251 4.561452 34.603155 0.845107
2008-08-18 11:04:45 51°23.708 2°38.735 18.0343 4.561036 34.597609 0.845107
2008-08-18 11:05:45 51°23.741 2°39.051 18.028 4.560828 34.594501 0.879931
2008-08-18 11:06:45 51°23.775 2°39.365 18.0293 4.560102 34.590338 0.949579
2008-08-18 11:07:45 51°23.812 2°39.676 18.0329 4.560102 34.586309 0.949579
2008-08-18 11:08:45 51°23.869 2°39.98 18.0356 4.559998 34.584084 0.949579
2008-08-18 11:09:45 51°23.944 2°40.277 18.0351 4.55979 34.582319 0.879931
2008-08-18 11:10:45 51°24.021 2°40.572 18.0301 4.55979 34.58299 0.914755
2008-08-18 11:11:45 51°24.099 2°40.866 18.0275 4.559479 34.583029 0.914755
2008-08-18 11:12:46 51°24.177 2°41.167 18.0188 4.559271 34.583949 0.879931
2008-08-18 11:13:45 51°24.252 2°41.455 18.017 4.558752 34.584909 0.810283
2008-08-18 11:14:46 51°24.329 2°41.756 18.0196 4.55896 34.589362 0.810283
2008-08-18 11:15:45 51°24.4 2°42.052 18.0141 4.559271 34.59201 0.914755
2008-08-18 11:16:46 51°24.477 2°42.357 18.0148 4.559583 34.597346 0.879931
2008-08-18 11:17:45 51°24.552 2°42.649 18.0177 4.560206 34.600626 0.879931
2008-08-18 11:18:46 51°24.63 2°42.954 18.0139 4.560413 34.602392 0.845107
2008-08-18 11:19:46 51°24.706 2°43.26 18.0174 4.560829 34.606595 0.810283
2008-08-18 11:20:46 51°24.782 2°43.562 18.0228 4.561348 34.607648 0.810283
2008-08-18 11:21:46 51°24.86 2°43.865 18.0252 4.561659 34.609624 0.775459
2008-08-18 11:22:45 51°24.937 2°44.16 18.0258 4.562075 34.611811 0.740634
2008-08-18 11:23:45 51°25.015 2°44.461 18.0263 4.562594 34.611519 0.740634
2008-08-18 11:24:45 51°25.093 2°44.762 18.0309 4.562594 34.611519 0.670986
2008-08-18 11:25:45 51°25.172 2°45.065 18.0314 4.562801 34.61194 0.670986
2008-08-18 11:26:45 51°25.251 2°45.366 18.037 4.563217 34.612783 0.740634
2008-08-18 11:27:45 51°25.329 2°45.672 18.0436 4.56384 34.61203 0.70581
2008-08-18 11:28:46 51°25.411 2°45.98 18.0512 4.564463 34.613965 0.636162
2008-08-18 11:29:45 51°25.49 2°46.281 18.0525 4.565501 34.614727 0.601338
2008-08-18 11:30:46 51°25.569 2°46.594 18.061 4.566435 34.619308 0.601338
2008-08-18 11:31:45 51°25.649 2°46.895 18.0732 4.567785 34.622716 0.636162
2008-08-18 11:32:46 51°25.725 2°47.206 18.0774 4.569446 34.630782 0.636162
2008-08-18 11:33:46 51°25.784 2°47.523 18.0858 4.571004 34.638636 0.566514
2008-08-18 11:34:46 51°25.839 2°47.84 18.0923 4.572042 34.642753 0.566514
2008-08-18 11:35:46 51°25.883 2°48.085 18.0906 4.572665 34.645356 0.53169
2008-08-18 11:36:46 51°25.93 2°48.272 18.0922 4.572977 34.645986 0.566514
2008-08-18 11:37:46 51°25.965 2°48.389 18.0931 4.573288 34.646617 0.53169
2008-08-18 11:38:46 51°25.981 2°48.462 18.0962 4.573496 34.647708 0.53169
2008-08-18 11:39:46 51°25.991 2°48.499 18.1 4.573911 34.647206 0.566514
2008-08-18 11:40:45 51°26.001 2°48.527 18.0977 4.574015 34.648758 0.636162
2008-08-18 11:41:45 51°26.011 2°48.552 18.1014 4.574015 34.648087 0.636162
2008-08-18 11:42:46 51°26.024 2°48.576 18.1052 4.57443 34.648927 0.601338
2008-08-18 11:43:45 51°26.037 2°48.597 18.1068 4.574534 34.647795 0.601338
2008-08-18 11:44:46 51°26.051 2°48.624 18.11 4.574949 34.648635 0.601338
2008-08-18 11:45:45 51°26.063 2°48.663 18.1133 4.575157 34.647713 0.566514
2008-08-18 11:46:46 51°26.09 2°48.804 18.1188 4.575676 34.648763 0.566514
2008-08-18 11:47:45 51°26.138 2°49.071 18.123 4.576091 34.648932 0.566514
2008-08-18 11:48:46 51°26.193 2°49.396 18.1187 4.576195 34.649142 0.636162
2008-08-18 11:49:45 51°26.249 2°49.715 18.1218 4.576299 34.646669 0.636162
2008-08-18 11:50:46 51°26.303 2°50.048 18.1267 4.576195 34.645788 0.601338
2008-08-18 11:51:46 51°26.352 2°50.382 18.1266 4.576195 34.644446 0.601338
2008-08-18 11:52:46 51°26.403 2°50.717 18.1306 4.576195 34.643775 0.601338
2008-08-18 11:53:46 51°26.452 2°51.051 18.1416 4.576818 34.640342 0.601338
2008-08-18 11:54:45 51°26.502 2°51.376 18.1558 4.575987 34.626594 0.636162
2008-08-18 11:55:46 51°26.551 2°51.715 18.1582 4.578271 34.636582 0.636162
2008-08-18 11:56:46 51°26.598 2°52.052 18.1577 4.579102 34.641615 0.70581
2008-08-18 11:57:46 51°26.646 2°52.384 18.1632 4.579102 34.640275 0.740634
2008-08-18 11:58:46 51°26.658 2°52.572 18.1613 4.579102 34.636925 0.740634
2008-08-18 11:59:45 51°26.662 2°52.67 18.1601 4.57879 34.636294 0.740634
2008-08-18 12:00:46 51°26.675 2°52.759 18.1565 4.578687 34.633404 0.740634
2008-08-18 12:01:45 51°26.73 2°52.895 18.1547 4.57796 34.633941 0.740634
2008-08-18 12:02:46 51°26.798 2°53.107 18.1611 4.577856 34.631721 0.70581
2008-08-18 12:03:45 51°26.856 2°53.401 18.1631 4.578375 34.631433 0.70581
2008-08-18 12:04:46 51°26.914 2°53.742 18.1681 4.578479 34.628965 0.70581
2008-08-18 12:05:45 51°26.963 2°54.08 18.1701 4.578583 34.626496 0.70581
2008-08-18 12:06:46 51°27.015 2°54.43 18.1875 4.578479 34.622938 0.670986
2008-08-18 12:07:46 51°27.063 2°54.774 18.2015 4.579828 34.620322 0.636162
2008-08-18 12:08:45 51°27.114 2°55.113 18.2262 4.581386 34.618129 0.670986
2008-08-18 12:09:46 51°27.166 2°55.463 18.2547 4.583774 34.615622 0.670986
2008-08-18 12:10:45 51°27.218 2°55.799 18.2813 4.586266 34.615336 0.636162
2008-08-18 12:11:46 51°27.274 2°56.145 18.3149 4.589692 34.621621 0.670986
2008-08-18 12:12:45 51°27.327 2°56.481 18.3356 4.593534 34.627412 0.740634
2008-08-18 12:13:46 51°27.378 2°56.829 18.3477 4.594572 34.620188 0.740634
2008-08-18 12:14:46 51°27.429 2°57.126 18.3499 4.594883 34.614826 0.740634
2008-08-18 12:15:46 51°27.478 2°57.275 18.353 4.594364 34.609111 0.740634
2008-08-18 12:16:46 51°27.516 2°57.388 18.3564 4.594675 34.606415 0.740634
2008-08-18 12:17:45 51°27.556 2°57.494 18.36 4.594883 34.606837 0.740634
2008-08-18 12:18:46 51°27.599 2°57.605 18.3626 4.595091 34.605928 0.740634
2008-08-18 12:19:45 51°27.64 2°57.713 18.3655 4.595195 34.604143 0.775459
2008-08-18 12:20:45 51°27.681 2°57.824 18.3669 4.595402 34.604565 0.845107
2008-08-18 12:21:46 51°27.724 2°57.936 18.3684 4.595298 34.603023 0.845107
2008-08-18 12:22:46 51°27.768 2°58.047 18.3702 4.595402 34.603899 0.845107
2008-08-18 12:23:46 51°27.812 2°58.158 18.367 4.595506 34.603445 0.845107
2008-08-18 12:24:45 51°27.854 2°58.268 18.367 4.595506 34.60278 0.879931
2008-08-18 12:25:46 51°27.899 2°58.378 18.3685 4.59561 34.602991 0.879931
2008-08-18 12:26:45 51°27.925 2°58.431 18.3715 4.595714 34.603202 0.879931
2008-08-18 12:27:46 51°27.948 2°58.466 18.3697 4.596025 34.603169 0.914755
2008-08-18 12:28:46 51°27.972 2°58.509 18.3699 4.595817 34.603413 0.949579
2008-08-18 12:29:45 51°27.994 2°58.554 18.3708 4.595817 34.603413 0.879931
2008-08-18 12:30:46 51°28.017 2°58.603 18.3743 4.596129 34.60338 0.914755
2008-08-18 12:31:46 51°28.037 2°58.661 18.3748 4.596337 34.603802 0.879931
2008-08-18 12:32:46 51°28.054 2°58.851 18.3761 4.596337 34.603802 0.914755
2008-08-18 12:33:46 51°28.068 2°59.175 18.3792 4.596648 34.603105 0.949579
2008-08-18 12:34:45 51°28.091 2°59.517 18.3771 4.59696 34.603738 1.088875
2008-08-18 12:35:45 51°28.11 2°59.866 18.3822 4.597063 34.605279 1.123699
2008-08-18 12:36:46 51°28.122 3°0.222 18.3773 4.597583 34.610325 1.193347
2008-08-18 12:37:45 51°28.134 3°0.566 18.3799 4.597063 34.605944 1.228171
2008-08-18 12:38:46 51°28.142 3°0.923 18.3738 4.59831 34.617123 1.262995
2008-08-18 12:39:45 51°28.145 3°1.268 18.3697 4.598206 34.62157 1.402292
2008-08-18 12:40:46 51°28.143 3°1.626 18.3705 4.597791 34.621393 1.47194
2008-08-18 12:41:46 51°28.14 3°1.978 18.3755 4.597687 34.614527 1.541588
2008-08-18 12:42:46 51°28.123 3°2.328 18.3947 4.597167 34.60682 1.47194
2008-08-18 12:43:46 51°28.102 3°2.68 18.4241 4.588652 34.513769 1.541588
2008-08-18 12:44:46 51°28.082 3°3.028 18.4267 4.585121 34.468789 1.611236
2008-08-18 12:45:46 51°28.074 3°3.367 18.4286 4.585536 34.468319 1.611236
2008-08-18 12:46:46 51°28.134 3°3.546 18.4229 4.585017 34.466591 1.64606
2008-08-18 12:47:45 51°28.209 3°3.589 18.4282 4.584602 34.464416 1.64606
2008-08-18 12:48:46 51°28.289 3°3.553 18.4299 4.584602 34.460447 1.680884
2008-08-18 12:49:45 51°28.326 3°3.555 18.4346 4.584705 34.46066 1.64606
2008-08-18 12:50:45 51°28.354 3°3.584 18.4341 4.585328 34.463263 1.715708
2008-08-18 12:51:45 51°28.382 3°3.623 18.436 4.585328 34.463924 1.680884
2008-08-18 12:52:46 51°28.41 3°3.668 18.4395 4.585951 34.465203 1.750532
2008-08-18 12:53:46 51°28.439 3°3.717 18.4414 4.586367 34.466056 1.750532
2008-08-18 12:54:46 51°28.466 3°3.773 18.4348 4.586263 34.468488 1.785356
2008-08-18 12:55:46 51°28.499 3°3.793 18.4333 4.586159 34.468275 1.82018
2008-08-18 12:56:46 51°28.484 3°3.769 18.4341 4.586159 34.469597 1.9943
2008-08-18 12:57:46 51°28.416 3°3.902 18.433 4.586574 34.471773 2.098773
2008-08-18 12:58:46 51°28.278 3°4.094 18.4308 4.586886 34.473073 2.098773
2008-08-18 12:59:46 51°28.127 3°4.299 18.4329 4.585848 34.470281 2.168421
2008-08-18 13:00:46 51°27.979 3°4.518 18.4306 4.585225 34.461065 2.098773
2008-08-18 13:01:46 51°27.829 3°4.734 18.4341 4.585017 34.457333 2.029124
2008-08-18 13:02:46 51°27.68 3°4.953 18.436 4.585225 34.459743 1.959476
2008-08-18 13:03:46 51°27.531 3°5.169 18.4263 4.585328 34.462601 1.82018
2008-08-18 13:04:46 51°27.394 3°5.409 18.4265 4.581175 34.434892 1.750532
2008-08-18 13:05:46 51°27.269 3°5.67 18.4265 4.576191 34.391597 1.785356
2008-08-18 13:06:46 51°27.151 3°5.942 18.4284 4.572764 34.358789 1.785356
2008-08-18 13:07:46 51°27.03 3°6.21 18.4348 4.569441 34.331478 1.785356
2008-08-18 13:08:46 51°26.911 3°6.479 18.4361 4.566949 34.306552 1.82018
2008-08-18 13:09:46 51°26.79 3°6.746 18.4392 4.564872 34.286445 1.82018
2008-08-18 13:10:46 51°26.671 3°7.014 18.4366 4.563522 34.273772 1.82018
2008-08-18 13:11:46 51°26.547 3°7.273 18.4319 4.560511 34.251724 1.889828
2008-08-18 13:12:46 51°26.42 3°7.529 18.4378 4.5575 34.227048 1.959476
2008-08-18 13:13:46 51°26.293 3°7.784 18.4428 4.554904 34.20193 1.959476
2008-08-18 13:14:46 51°26.222 3°7.987 18.4484 4.552619 34.178129 1.9943
2008-08-18 13:15:46 51°26.277 3°8.12 18.4519 4.550958 34.161539 1.959476
2008-08-18 13:16:46 51°26.369 3°8.218 18.4573 4.550335 34.151061 1.889828
2008-08-18 13:17:46 51°26.443 3°8.308 18.463 4.549712 34.140588 1.889828
2008-08-18 13:18:46 51°26.477 3°8.353 18.4668 4.5494 34.134044 1.855004
2008-08-18 13:19:46 51°26.496 3°8.392 18.4664 4.5494 34.132081 1.82018
2008-08-18 13:20:46 51°26.521 3°8.43 18.472 4.549296 34.131209 1.785356
2008-08-18 13:21:46 51°26.548 3°8.464 18.4719 4.549296 34.127938 1.750532
2008-08-18 13:22:46 51°26.577 3°8.495 18.4743 4.549192 34.126412 1.750532
2008-08-18 13:23:46 51°26.632 3°8.528 18.4732 4.549296 34.125323 1.750532
2008-08-18 13:24:46 51°26.667 3°8.649 18.484 4.549608 34.125324 1.785356
2008-08-18 13:25:45 51°26.603 3°8.781 18.4774 4.547323 34.100254 1.855004
2008-08-18 13:26:46 51°26.482 3°9.006 18.4831 4.547531 34.105265 1.855004
2008-08-18 13:27:46 51°26.35 3°9.231 18.4894 4.54587 34.086087 1.959476
2008-08-18 13:28:45 51°26.213 3°9.448 18.4884 4.542339 34.053833 2.029124
2008-08-18 13:29:46 51°26.07 3°9.67 18.4867 4.539328 34.029204 2.098773
2008-08-18 13:30:45 51°25.931 3°9.885 18.4893 4.537355 34.01134 2.133597
2008-08-18 13:31:46 51°25.786 3°10.102 18.4907 4.536005 34.001312 2.203245
2008-08-18 13:32:45 51°25.645 3°10.312 18.4877 4.534863 33.993027 2.342541
2008-08-18 13:33:46 51°25.496 3°10.525 18.4859 4.533929 33.985834 2.377365
2008-08-18 13:34:46 51°25.351 3°10.738 18.4788 4.533514 33.9843 2.412189
2008-08-18 13:35:46 51°25.206 3°10.953 18.4691 4.534241 33.996262 2.412189
2008-08-18 13:36:46 51°25.061 3°11.17 18.448 4.536836 34.028489 2.377365
2008-08-18 13:37:45 51°24.93 3°11.367 18.4119 4.542444 34.095849 2.412189
2008-08-18 13:38:46 51°24.867 3°11.473 18.3901 4.548051 34.171174 2.412189
2008-08-18 13:39:45 51°24.841 3°11.54 18.3815 4.54992 34.198065 2.342541
2008-08-18 13:40:45 51°24.789 3°11.587 18.3582 4.55127 34.219289 2.272893
2008-08-18 13:41:46 51°24.652 3°11.565 18.3339 4.556047 34.280598 2.447013
2008-08-18 13:42:46 51°24.49 3°11.532 18.3236 4.556048 34.301046 2.377365
2008-08-18 13:43:46 51°24.304 3°11.58 18.3303 4.542757 34.19359 2.238069
2008-08-18 13:44:46 51°24.127 3°11.736 18.3704 4.525832 34.036546 2.063949
2008-08-18 13:45:46 51°23.951 3°11.895 18.3954 4.50434 33.827654 2.377365
2008-08-18 13:46:45 51°23.776 3°12.037 18.4114 4.489701 33.683907 2.690782
2008-08-18 13:47:46 51°23.596 3°12.183 18.4104 4.482537 33.616015 2.899726
2008-08-18 13:48:45 51°23.42 3°12.32 18.4215 4.476308 33.561163 3.422087
2008-08-18 13:49:46 51°23.237 3°12.453 18.4419 4.46686 33.470349 4.362336
2008-08-18 13:50:46 51°23.055 3°12.578 18.4623 4.455233 33.358168 4.014096
2008-08-18 13:51:46 51°22.87 3°12.704 18.4762 4.443606 33.244861 4.640929
2008-08-18 13:52:46 51°22.686 3°12.826 18.4847 4.433536 33.151078 4.536456
2008-08-18 13:53:46 51°22.536 3°12.935 18.498 4.421183 33.039562 4.849873
2008-08-18 13:54:46 51°22.496 3°13.086 18.5043 4.400319 32.857079 5.232937
2008-08-18 13:55:46 51°22.552 3°13.199 18.51 4.393053 32.792034 5.546354
2008-08-18 13:56:46 51°22.594 3°13.246 18.5144 4.393572 32.791347 5.650826
2008-08-18 13:57:46 51°22.617 3°13.297 18.5123 4.392015 32.778356 5.476706
2008-08-18 13:58:46 51°22.635 3°13.347 18.5114 4.392222 32.779461 5.33741
2008-08-18 13:59:46 51°22.651 3°13.397 18.5126 4.391599 32.774891 5.232937
2008-08-18 14:00:46 51°22.668 3°13.443 18.5132 4.391807 32.774743 5.163289
2008-08-18 14:01:46 51°22.662 3°13.411 18.5177 4.391703 32.775131 5.023993
2008-08-18 14:02:46 51°22.619 3°13.237 18.5114 4.395129 32.803085 5.058817
2008-08-18 14:03:46 51°22.582 3°12.99 18.5103 4.395129 32.80434 5.267761
2008-08-18 14:04:46 51°22.548 3°12.735 18.512 4.390665 32.767724 5.476706
2008-08-18 14:05:46 51°22.509 3°12.482 18.5108 4.387759 32.744728 5.720474
2008-08-18 14:06:46 51°22.471 3°12.229 18.5103 4.385994 32.730007 6.068715
2008-08-18 14:07:46 51°22.433 3°12.003 18.5083 4.383815 32.712449 6.138363
2008-08-18 14:08:46 51°22.405 3°11.828 18.5045 4.382465 32.703695 6.138363
2008-08-18 14:09:46 51°22.381 3°11.656 18.5029 4.382362 32.703455 6.068715
2008-08-18 14:10:46 51°22.359 3°11.484 18.5006 4.382569 32.707689 6.068715
2008-08-18 14:11:46 51°22.345 3°11.328 18.502 4.383088 32.711393 5.964243
2008-08-18 14:12:46 51°22.386 3°11.256 18.4978 4.383711 32.718467 5.824946
2008-08-18 14:13:46 51°22.418 3°11.202 18.4965 4.384541 32.726647 5.581178
2008-08-18 14:14:46 51°22.435 3°11.176 18.4984 4.38641 32.742864 5.407058
2008-08-18 14:15:46 51°22.453 3°11.179 18.4973 4.388797 32.762787 5.51153
2008-08-18 14:16:46 51°22.472 3°11.194 18.4982 4.390977 32.78098 5.51153
2008-08-18 14:17:46 51°22.491 3°11.217 18.4976 4.392534 32.793348 5.51153
2008-08-18 14:18:46 51°22.512 3°11.247 18.4972 4.39326 32.799413 5.476706
2008-08-18 14:19:46 51°22.531 3°11.28 18.4981 4.393779 32.805 5.441882
2008-08-18 14:20:46 51°22.549 3°11.316 18.4996 4.393883 32.805866 5.372234
2008-08-18 14:21:46 51°22.565 3°11.326 18.5022 4.39544 32.816352 5.198113
2008-08-18 14:22:46 51°22.565 3°11.271 18.5051 4.39762 32.828896 4.954345
2008-08-18 14:23:46 51°22.553 3°11.175 18.5019 4.397412 32.829675 4.849873
2008-08-18 14:24:46 51°22.524 3°10.973 18.4973 4.398035 32.836758 4.989169
2008-08-18 14:25:46 51°22.475 3°10.71 18.4976 4.399592 32.854785 5.058817
2008-08-18 14:26:46 51°22.419 3°10.445 18.4912 4.403018 32.882129 5.128465
2008-08-18 14:27:46 51°22.358 3°10.183 18.499 4.404782 32.899383 5.267761
2008-08-18 14:28:46 51°22.298 3°9.922 18.4945 4.406339 32.911128 5.372234
2008-08-18 14:29:46 51°22.233 3°9.66 18.4858 4.407585 32.924051 5.476706
2008-08-18 14:30:46 51°22.148 3°9.413 18.4848 4.408 32.934452 5.51153
2008-08-18 14:31:46 51°22.049 3°9.18 18.4855 4.408415 32.934139 5.581178
2008-08-18 14:32:46 51°21.94 3°8.958 18.4853 4.408727 32.937371 5.616002
2008-08-18 14:33:46 51°21.826 3°8.745 18.4909 4.409453 32.94218 5.650826
2008-08-18 14:34:45 51°21.716 3°8.531 18.4963 4.410388 32.947463 5.441882
2008-08-18 14:35:46 51°21.603 3°8.305 18.4943 4.409661 32.938871 5.51153
2008-08-18 14:36:46 51°21.495 3°8.079 18.4916 4.408 32.923739 5.720474
2008-08-18 14:37:46 51°21.391 3°7.844 18.4905 4.407792 32.923895 6.242835
2008-08-18 14:38:46 51°21.279 3°7.618 18.4768 4.414332 32.98231 6.765196
2008-08-18 14:39:46 51°21.165 3°7.392 18.4528 4.427619 33.109836 6.660724
2008-08-18 14:40:46 51°21.054 3°7.167 18.4196 4.470701 33.487788 5.720474
2008-08-18 14:41:46 51°20.945 3°6.944 18.4131 4.540056 34.091467 4.745401
2008-08-18 14:42:46 51°20.841 3°6.713 18.3976 4.561446 34.279317 4.431984
2008-08-18 14:43:46 51°20.739 3°6.48 18.3886 4.566949 34.33488 4.39716
2008-08-18 14:44:46 51°20.636 3°6.252 18.39 4.575153 34.413237 4.39716
2008-08-18 14:45:46 51°20.525 3°6.033 18.3791 4.579722 34.451745 4.466808
2008-08-18 14:46:46 51°20.413 3°5.817 18.3824 4.58076 34.465133 4.501632
2008-08-18 14:47:46 51°20.304 3°5.596 18.3846 4.584187 34.492698 4.22304
2008-08-18 14:48:46 51°20.199 3°5.365 18.3886 4.583771 34.487208 4.04892
2008-08-18 14:49:46 51°20.094 3°5.13 18.3939 4.58211 34.468566 3.979271
2008-08-18 14:50:46 51°19.988 3°4.898 18.3959 4.581487 34.461328 3.874799
2008-08-18 14:51:46 51°19.875 3°4.673 18.4004 4.581487 34.456695 3.839975
2008-08-18 14:52:45 51°19.76 3°4.459 18.4149 4.581591 34.454262 3.839975
2008-08-18 14:53:46 51°19.644 3°4.232 18.4103 4.582629 34.457056 3.770327
2008-08-18 14:54:46 51°19.53 3°4.008 18.4129 4.583563 34.46493 3.874799
2008-08-18 14:55:46 51°19.419 3°3.783 18.4075 4.585952 34.485054 3.805151
2008-08-18 14:56:46 51°19.312 3°3.552 18.4119 4.587094 34.494679 3.735503
2008-08-18 14:57:46 51°19.208 3°3.313 18.4177 4.586782 34.488081 3.561383
2008-08-18 14:58:46 51°19.101 3°3.081 18.4237 4.58699 34.485859 3.526559
2008-08-18 14:59:46 51°18.991 3°2.848 18.42 4.587925 34.491084 3.456911
2008-08-18 15:00:46 51°18.881 3°2.616 18.4195 4.588651 34.497207 3.352439
2008-08-18 15:01:46 51°18.77 3°2.385 18.4196 4.589171 34.502244 3.28279
2008-08-18 15:02:46 51°18.66 3°2.154 18.421 4.590001 34.509905 3.317614
2008-08-18 15:03:46 51°18.561 3°1.911 18.4247 4.590001 34.509243 3.247966
2008-08-18 15:04:46 51°18.465 3°1.665 18.4229 4.589482 34.502219 3.178318
2008-08-18 15:05:46 51°18.372 3°1.415 18.4277 4.589171 34.498271 3.073846
2008-08-18 15:06:46 51°18.286 3°1.158 18.4351 4.588963 34.493873 2.969374
2008-08-18 15:07:46 51°18.202 3°0.898 18.4413 4.588547 34.483096 2.864902
2008-08-18 15:08:46 51°18.117 3°0.638 18.4449 4.588132 34.476291 2.795254
2008-08-18 15:09:46 51°18.029 3°0.379 18.4515 4.588236 34.472537 2.76043
2008-08-18 15:10:46 51°17.942 3°0.121 18.4562 4.589066 34.475564 2.725606
2008-08-18 15:11:46 51°17.853 2°59.865 18.4662 4.590312 34.480764 2.621133
2008-08-18 15:12:46 51°17.764 2°59.609 18.4639 4.591455 34.484429 2.621133
2008-08-18 15:13:46 51°17.674 2°59.356 18.469 4.591247 34.484003 2.725606
2008-08-18 15:14:46 51°17.586 2°59.107 18.4696 4.591143 34.481146 3.004198
2008-08-18 15:15:46 51°17.498 2°58.858 18.473 4.590831 34.477203 3.247966
2008-08-18 15:16:46 51°17.408 2°58.613 18.4737 4.590624 34.472151 3.387263
2008-08-18 15:17:46 51°17.34 2°58.348 18.4742 4.590001 34.466248 3.491735
2008-08-18 15:18:46 51°17.272 2°58.082 18.4783 4.589378 34.459024 3.491735
2008-08-18 15:19:46 51°17.191 2°57.826 18.4788 4.588754 34.449161 3.422087
2008-08-18 15:20:46 51°17.114 2°57.566 18.4794 4.586989 34.434971 3.387263
2008-08-18 15:21:46 51°17.036 2°57.306 18.47 4.585328 34.421655 3.247966
2008-08-18 15:22:46 51°16.949 2°57.055 18.4639 4.582836 34.409924 3.143494
2008-08-18 15:23:46 51°16.866 2°56.801 18.4352 4.580344 34.400168 3.004198
2008-08-18 15:24:46 51°16.791 2°56.541 18.411 4.577125 34.393526 3.28279
2008-08-18 15:25:46 51°16.727 2°56.271 18.3976 4.574529 34.389488 3.526559
2008-08-18 15:26:46 51°16.67 2°55.998 18.3892 4.573699 34.391075 3.839975
2008-08-18 15:27:46 51°16.608 2°55.726 18.379 4.572868 34.393324 3.909623
2008-08-18 15:28:46 51°16.54 2°55.458 18.3719 4.572557 34.395325 3.839975
2008-08-18 15:29:46 51°16.467 2°55.193 18.3597 4.571622 34.396041 3.770327
2008-08-18 15:30:46 51°16.401 2°54.922 18.3489 4.57048 34.396329 3.805151
2008-08-18 15:31:46 51°16.342 2°54.664 18.3319 4.568715 34.394672 3.770327
2008-08-18 15:32:46 51°16.299 2°54.503 18.3229 4.567885 34.395605 3.665855
2008-08-18 15:33:46 51°16.276 2°54.425 18.3199 4.56747 34.400706 3.735503
2008-08-18 15:34:46 51°16.271 2°54.378 18.3216 4.567573 34.403569 3.700679
2008-08-18 15:35:46 51°16.274 2°54.354 18.3196 4.567989 34.406412 3.631031
2008-08-18 15:36:46 51°16.28 2°54.343 18.3204 4.568404 34.409255 3.456911
2008-08-18 15:37:46 51°16.29 2°54.343 18.3227 4.568612 34.411007 3.387263
2008-08-18 15:38:46 51°16.302 2°54.35 18.3214 4.569027 34.413187 3.317614
2008-08-18 15:39:46 51°16.317 2°54.364 18.3216 4.569027 34.41385 3.213142
2008-08-18 15:40:46 51°16.332 2°54.383 18.32 4.569027 34.414512 3.10867
2008-08-18 15:41:46 51°16.347 2°54.404 18.3193 4.568923 34.414961 3.004198
2008-08-18 15:42:46 51°16.36 2°54.426 18.321 4.568923 34.415623 2.969374
2008-08-18 15:43:46 51°16.374 2°54.45 18.3191 4.569235 34.416927 2.93455
2008-08-18 15:44:46 51°16.411 2°54.428 18.3263 4.569235 34.41759 2.969374
2008-08-18 15:45:46 51°16.374 2°54.36 18.3195 4.569546 34.418231 3.317614
2008-08-18 15:46:46 51°16.22 2°54.38 18.3184 4.569754 34.419984 3.596207
2008-08-18 15:47:46 51°16.029 2°54.399 18.3114 4.569546 34.421544 3.979271
2008-08-18 15:48:46 51°15.836 2°54.407 18.3025 4.567677 34.411069 3.839975
2008-08-18 15:49:46 51°15.642 2°54.426 18.2947 4.565289 34.398859 4.188216
2008-08-18 15:50:46 51°15.451 2°54.461 18.3068 4.562174 34.375874 4.501632
2008-08-18 15:51:46 51°15.261 2°54.504 18.5045 0.130817 0.754713 -1.174688
2008-08-18 15:52:46 51°15.071 2°54.553 18.5807 0.09387 0.533914 -1.209513
2008-08-18 15:53:46 51°14.887 2°54.646 18.6508 0.107043 0.612081 -1.209513
2008-08-18 15:54:46 51°14.705 2°54.763 18.7328 0.082034 0.464093 -1.209513
2008-08-18 15:55:46 51°14.528 2°54.904 18.8111 0.08224 0.465232 -1.209513
2008-08-18 15:56:46 51°14.364 2°55.08 18.8976 0.065363 0.366712 -1.209513